Time;durP1;ratioP1;P1;durP2;ratioP2;P2;SDS_P1;SDS_P2;PMS_P1;PMS_P2;Temp;Humidity;BMP_temperature;BMP_pressure;BME280_temperature;BME280_humidity;BME280_pressure;Samples;Min_cycle;Max_cycle;Signal;HPM_P1;HPM_P2
2023/10/20 00:03:04;;;;;;;25.70;20.57;;;;;;;;;;4922788;29;20220;-83
2023/10/20 00:06:08;;;;;;;26.17;21.27;;;;;;;;;;4923115;29;20239;-83
2023/10/20 00:09:16;;;;;;;29.13;20.63;;;;;;;;;;4922433;29;20211;-83
2023/10/20 00:12:23;;;;;;;25.10;20.13;;;;;;;;;;4922778;29;20192;-83
2023/10/20 00:15:28;;;;;;;32.83;22.40;;;;;;;;;;4888585;29;20617;-82
2023/10/20 00:18:32;;;;;;;29.93;20.87;;;;;;;;;;4923026;29;20196;-83
2023/10/20 00:21:36;;;;;;;28.93;22.40;;;;;;;;;;4911784;29;20196;-83
2023/10/20 00:24:40;;;;;;;25.83;21.00;;;;;;;;;;4921793;29;20201;-83
2023/10/20 00:27:45;;;;;;;29.33;22.13;;;;;;;;;;4910982;29;20565;-83
2023/10/20 00:30:49;;;;;;;28.77;21.73;;;;;;;;;;4910395;29;20232;-83
2023/10/20 00:33:53;;;;;;;24.50;19.00;;;;;;;;;;4899405;29;20199;-83
2023/10/20 00:36:59;;;;;;;29.20;21.57;;;;;;;;;;4898838;29;20248;-83
2023/10/20 00:40:07;;;;;;;29.63;22.60;;;;;;;;;;4921678;29;20554;-83
2023/10/20 00:43:11;;;;;;;34.10;24.80;;;;;;;;;;4899327;29;20196;-83
2023/10/20 00:46:16;;;;;;;32.37;24.07;;;;;;;;;;4899321;29;20714;-83
2023/10/20 00:49:21;;;;;;;26.97;21.40;;;;;;;;;;4921882;29;20196;-83
2023/10/20 00:52:27;;;;;;;31.73;23.00;;;;;;;;;;4899626;29;20193;-83
2023/10/20 00:55:32;;;;;;;32.33;22.97;;;;;;;;;;4909959;29;20724;-83
2023/10/20 00:58:37;;;;;;;26.93;20.37;;;;;;;;;;4899616;29;20196;-83
2023/10/20 01:01:42;;;;;;;29.53;22.23;;;;;;;;;;4900826;29;20192;-83
2023/10/20 01:04:47;;;;;;;28.63;21.70;;;;;;;;;;4903648;29;20191;-83
2023/10/20 01:07:51;;;;;;;29.17;22.07;;;;;;;;;;4925376;29;20215;-83
2023/10/20 01:10:55;;;;;;;30.83;22.27;;;;;;;;;;4903820;29;20224;-83
2023/10/20 01:14:00;;;;;;;29.97;22.40;;;;;;;;;;4914316;29;20200;-83
2023/10/20 01:17:05;;;;;;;29.10;22.33;;;;;;;;;;4924355;29;20216;-83
2023/10/20 01:20:10;;;;;;;28.33;21.27;;;;;;;;;;4913233;29;20199;-83
2023/10/20 01:23:14;;;;;;;27.40;22.17;;;;;;;;;;4891931;29;20199;-83
2023/10/20 01:26:18;;;;;;;29.43;23.77;;;;;;;;;;4923836;29;20235;-83
2023/10/20 01:29:23;;;;;;;29.73;23.43;;;;;;;;;;4923904;29;20558;-83
2023/10/20 01:32:29;;;;;;;30.13;24.13;;;;;;;;;;4925363;29;20188;-82
2023/10/20 01:35:33;;;;;;;29.83;23.23;;;;;;;;;;4914129;29;20228;-83
2023/10/20 01:38:37;;;;;;;32.30;24.47;;;;;;;;;;4924100;29;20200;-83
2023/10/20 01:41:42;;;;;;;30.80;23.90;;;;;;;;;;4924630;29;20196;-83
2023/10/20 01:44:46;;;;;;;30.17;24.10;;;;;;;;;;4912087;29;20196;-83
2023/10/20 01:47:50;;;;;;;32.43;25.17;;;;;;;;;;4922835;29;20701;-83
2023/10/20 01:50:56;;;;;;;29.23;23.17;;;;;;;;;;4921828;29;20232;-83
2023/10/20 01:54:02;;;;;;;32.70;23.00;;;;;;;;;;4911875;29;20200;-83
2023/10/20 01:57:08;;;;;;;30.83;23.70;;;;;;;;;;4923475;29;20665;-83
2023/10/20 02:00:13;;;;;;;32.33;23.70;;;;;;;;;;4901588;29;20558;-83
2023/10/20 02:03:19;;;;;;;30.77;23.43;;;;;;;;;;4911931;29;20196;-83
2023/10/20 02:06:23;;;;;;;30.50;23.00;;;;;;;;;;4912187;29;20251;-83
2023/10/20 02:09:28;;;;;;;31.20;23.93;;;;;;;;;;4912187;29;20196;-83
2023/10/20 02:12:33;;;;;;;35.30;23.67;;;;;;;;;;4901179;29;20228;-83
2023/10/20 02:15:38;;;;;;;31.73;25.17;;;;;;;;;;4922096;29;20247;-83
2023/10/20 02:18:43;;;;;;;34.00;24.47;;;;;;;;;;4900711;29;20208;-84
2023/10/20 02:21:47;;;;;;;36.77;24.93;;;;;;;;;;4922447;29;20558;-83
2023/10/20 02:24:52;;;;;;;36.00;25.90;;;;;;;;;;4924658;29;20686;-83
2023/10/20 02:27:57;;;;;;;34.87;25.70;;;;;;;;;;4902395;29;20200;-83
2023/10/20 02:31:11;;;;;;;37.57;25.07;;;;;;;;;;4901330;29;20243;-83
2023/10/20 02:34:16;;;;;;;33.40;25.53;;;;;;;;;;4924399;29;20196;-83
2023/10/20 02:37:20;;;;;;;34.00;25.37;;;;;;;;;;4923197;29;20205;-83
2023/10/20 02:40:25;;;;;;;33.30;24.87;;;;;;;;;;4890779;29;20192;-83
2023/10/20 02:43:29;;;;;;;37.80;26.03;;;;;;;;;;4911717;29;20561;-83
2023/10/20 02:46:36;;;;;;;35.10;25.23;;;;;;;;;;4922337;29;20236;-83
2023/10/20 02:49:40;;;;;;;33.87;24.53;;;;;;;;;;4901108;29;20192;-83
2023/10/20 02:52:44;;;;;;;34.70;25.57;;;;;;;;;;4911935;29;20290;-83
2023/10/20 02:55:48;;;;;;;35.80;26.07;;;;;;;;;;4900776;29;20231;-83
2023/10/20 02:58:53;;;;;;;35.67;26.53;;;;;;;;;;4900925;29;20192;-83
2023/10/20 03:01:57;;;;;;;36.50;28.33;;;;;;;;;;4923159;29;20246;-84
2023/10/20 03:05:02;;;;;;;37.63;26.80;;;;;;;;;;4922835;29;20231;-83
2023/10/20 03:08:06;;;;;;;36.03;25.77;;;;;;;;;;4900156;29;20558;-83
2023/10/20 03:11:11;;;;;;;35.03;26.83;;;;;;;;;;4900539;29;20228;-83
2023/10/20 03:14:17;;;;;;;36.97;27.97;;;;;;;;;;4910995;29;20255;-83
2023/10/20 03:17:21;;;;;;;38.10;27.30;;;;;;;;;;4911456;29;20200;-84
2023/10/20 03:20:30;;;;;;;36.97;28.03;;;;;;;;;;4911888;29;20192;-83
2023/10/20 03:23:34;;;;;;;38.33;28.17;;;;;;;;;;4899536;29;20188;-83
2023/10/20 03:26:37;;;;;;;36.87;27.93;;;;;;;;;;4911388;29;20227;-83
2023/10/20 03:29:42;;;;;;;40.10;28.53;;;;;;;;;;4921734;29;20195;-83
2023/10/20 03:32:50;;;;;;;41.57;29.23;;;;;;;;;;4922552;29;20232;-83
2023/10/20 03:36:02;;;;;;;41.33;28.13;;;;;;;;;;4900303;29;20232;-83
2023/10/20 03:39:19;;;;;;;37.53;28.53;;;;;;;;;;4911122;29;20197;-83
2023/10/20 03:42:23;;;;;;;40.10;29.30;;;;;;;;;;4922379;29;20555;-84
2023/10/20 03:45:27;;;;;;;42.40;29.53;;;;;;;;;;4910544;29;20227;-83
2023/10/20 03:48:34;;;;;;;40.23;30.23;;;;;;;;;;4889515;29;20204;-83
2023/10/20 03:51:38;;;;;;;40.60;29.13;;;;;;;;;;4911079;29;20223;-83
2023/10/20 03:54:44;;;;;;;40.83;30.27;;;;;;;;;;4910302;29;20664;-83
2023/10/20 03:57:49;;;;;;;39.90;30.47;;;;;;;;;;4910982;29;20669;-83
2023/10/20 04:00:55;;;;;;;39.00;29.43;;;;;;;;;;4922687;29;20191;-83
2023/10/20 04:03:59;;;;;;;38.87;30.20;;;;;;;;;;4922457;29;20562;-83
2023/10/20 04:07:04;;;;;;;40.97;29.77;;;;;;;;;;4900350;29;20653;-83
2023/10/20 04:10:08;;;;;;;43.07;31.17;;;;;;;;;;4921929;29;20196;-84
2023/10/20 04:13:12;;;;;;;44.07;30.97;;;;;;;;;;4902665;29;20232;-84
2023/10/20 04:16:18;;;;;;;43.97;32.27;;;;;;;;;;4910062;29;20238;-84
2023/10/20 04:19:22;;;;;;;42.97;30.27;;;;;;;;;;4910228;29;20208;-83
2023/10/20 04:22:26;;;;;;;43.03;31.53;;;;;;;;;;4922104;29;20207;-83
2023/10/20 04:25:38;;;;;;;44.00;31.93;;;;;;;;;;4939366;29;20235;-83
2023/10/20 04:28:43;;;;;;;44.93;32.80;;;;;;;;;;4929464;29;20199;-84
2023/10/20 04:49:15;;;;;;;46.57;32.63;;;;;;;;;;4904123;29;20220;-82
2023/10/20 04:58:54;;;;;;;42.93;31.80;;;;;;;;;;4926995;29;20192;-84
2023/10/20 05:02:05;;;;;;;46.77;35.67;;;;;;;;;;4926198;29;20554;-84
2023/10/20 05:08:29;;;;;;;44.93;33.30;;;;;;;;;;4914065;29;20189;-83
2023/10/20 05:11:33;;;;;;;46.03;33.37;;;;;;;;;;4915019;29;20223;-83
2023/10/20 05:14:37;;;;;;;48.50;33.27;;;;;;;;;;4926896;29;20220;-84
2023/10/20 05:17:41;;;;;;;50.40;32.53;;;;;;;;;;4923246;29;20220;-84
2023/10/20 05:20:46;;;;;;;46.63;34.23;;;;;;;;;;4906115;29;20192;-83
2023/10/20 05:23:50;;;;;;;47.33;33.57;;;;;;;;;;4903683;29;20202;-83
2023/10/20 05:26:54;;;;;;;46.83;33.73;;;;;;;;;;4902575;29;20232;-83
2023/10/20 05:29:58;;;;;;;46.97;32.37;;;;;;;;;;4932223;29;20223;-82
2023/10/20 05:33:05;;;;;;;44.63;32.80;;;;;;;;;;4921241;29;20215;-83
2023/10/20 05:36:19;;;;;;;47.37;34.20;;;;;;;;;;4921990;29;20232;-84
2023/10/20 05:39:23;;;;;;;48.50;33.47;;;;;;;;;;4921261;29;20200;-83
2023/10/20 05:42:27;;;;;;;45.80;31.87;;;;;;;;;;4921530;29;20188;-84
2023/10/20 05:45:39;;;;;;;45.40;33.20;;;;;;;;;;4921825;29;20239;-83
2023/10/20 05:48:44;;;;;;;45.57;33.67;;;;;;;;;;4941482;29;20204;-83
2023/10/20 05:51:51;;;;;;;44.20;33.07;;;;;;;;;;4940145;29;20219;-83
2023/10/20 05:54:57;;;;;;;42.07;32.57;;;;;;;;;;4928806;29;20235;-83
2023/10/20 05:58:03;;;;;;;41.07;30.60;;;;;;;;;;4939371;29;20215;-84
2023/10/20 06:01:11;;;;;;;48.17;34.30;;;;;;;;;;4941168;29;20196;-83
2023/10/20 06:04:15;;;;;;;41.43;31.30;;;;;;;;;;4951908;29;20680;-83
2023/10/20 06:07:19;;;;;;;47.97;33.13;;;;;;;;;;4932829;29;20664;-83
2023/10/20 06:10:24;;;;;;;44.10;32.77;;;;;;;;;;4940462;29;20199;-83
2023/10/20 06:13:29;;;;;;;46.80;32.50;;;;;;;;;;4940173;29;20219;-83
2023/10/20 06:16:33;;;;;;;42.87;30.53;;;;;;;;;;4936380;29;20242;-83
2023/10/20 06:19:37;;;;;;;77.57;46.23;;;;;;;;;;4920447;29;20266;-84
2023/10/20 06:22:42;;;;;;;62.50;39.67;;;;;;;;;;4908001;29;20200;-83
2023/10/20 06:25:46;;;;;;;46.30;34.13;;;;;;;;;;4920930;29;20601;-83
2023/10/20 06:28:51;;;;;;;47.93;32.43;;;;;;;;;;4908239;29;20192;-83
2023/10/20 06:32:10;;;;;;;44.70;32.47;;;;;;;;;;4908857;29;20224;-83
2023/10/20 06:35:16;;;;;;;40.07;30.10;;;;;;;;;;4919870;29;20261;-82
2023/10/20 06:38:36;;;;;;;42.97;31.33;;;;;;;;;;4888667;29;20196;-82
2023/10/20 06:41:41;;;;;;;43.30;30.73;;;;;;;;;;4908270;29;20591;-82
2023/10/20 06:44:48;;;;;;;44.53;30.13;;;;;;;;;;4902164;29;20192;-82
2023/10/20 06:47:52;;;;;;;43.03;29.67;;;;;;;;;;4928366;29;20589;-82
2023/10/20 06:50:57;;;;;;;37.83;29.80;;;;;;;;;;4938716;29;20191;-84
2023/10/20 06:54:01;;;;;;;42.23;30.23;;;;;;;;;;4939225;29;20227;-83
2023/10/20 06:57:05;;;;;;;42.90;30.47;;;;;;;;;;4929005;29;20195;-83
2023/10/20 07:00:17;;;;;;;38.57;27.70;;;;;;;;;;4939222;29;20203;-82
2023/10/20 07:03:22;;;;;;;39.00;29.87;;;;;;;;;;4906392;29;20195;-85
2023/10/20 07:06:28;;;;;;;37.43;28.30;;;;;;;;;;4939573;29;20231;-82
2023/10/20 07:09:32;;;;;;;38.33;28.83;;;;;;;;;;4917307;29;20199;-82
2023/10/20 07:12:37;;;;;;;38.87;28.07;;;;;;;;;;4933051;29;20231;-83
2023/10/20 07:18:54;;;;;;;35.83;27.67;;;;;;;;;;5036919;23;20239;-82
2023/10/20 07:21:58;;;;;;;34.63;27.10;;;;;;;;;;4939074;29;20245;-82
2023/10/20 07:25:03;;;;;;;35.33;26.77;;;;;;;;;;4938139;29;20231;-83
2023/10/20 07:28:07;;;;;;;36.03;26.67;;;;;;;;;;4939264;29;20199;-82
2023/10/20 07:31:12;;;;;;;34.17;25.20;;;;;;;;;;4938870;29;20571;-82
2023/10/20 07:34:17;;;;;;;35.57;26.33;;;;;;;;;;4921041;29;20215;-82
2023/10/20 07:37:20;;;;;;;33.30;24.87;;;;;;;;;;4926920;29;20199;-82
2023/10/20 07:40:26;;;;;;;36.93;27.03;;;;;;;;;;4938009;29;20195;-83
2023/10/20 07:43:30;;;;;;;35.37;25.60;;;;;;;;;;4938717;29;20191;-82
2023/10/20 07:46:35;;;;;;;34.80;25.20;;;;;;;;;;4937732;29;20239;-82
2023/10/20 07:49:39;;;;;;;32.47;25.03;;;;;;;;;;4938112;29;20211;-82
2023/10/20 07:52:44;;;;;;;31.70;24.70;;;;;;;;;;4925604;29;20581;-81
2023/10/20 07:55:48;;;;;;;34.30;26.23;;;;;;;;;;4925297;29;20238;-83
2023/10/20 07:58:52;;;;;;;32.10;25.03;;;;;;;;;;4925685;29;20195;-82
2023/10/20 08:02:01;;;;;;;30.40;23.57;;;;;;;;;;4937753;29;20219;-87
2023/10/20 08:05:08;;;;;;;29.10;24.47;;;;;;;;;;4936349;29;20581;-85
2023/10/20 08:08:12;;;;;;;32.90;25.10;;;;;;;;;;4924666;29;20215;-87
2023/10/20 08:11:16;;;;;;;31.83;23.90;;;;;;;;;;4938623;29;20557;-85
2023/10/20 08:14:20;;;;;;;31.67;24.17;;;;;;;;;;4929323;29;20215;-84
2023/10/20 08:17:25;;;;;;;32.97;24.13;;;;;;;;;;4917743;29;20195;-84
2023/10/20 08:20:29;;;;;;;32.97;23.93;;;;;;;;;;4919647;29;20265;-85
2023/10/20 08:23:34;;;;;;;31.33;23.63;;;;;;;;;;4929664;29;20187;-84
2023/10/20 08:26:39;;;;;;;30.33;24.17;;;;;;;;;;4942439;29;20238;-84
2023/10/20 08:29:45;;;;;;;28.30;22.67;;;;;;;;;;4929591;29;20561;-84
2023/10/20 08:32:49;;;;;;;29.73;22.37;;;;;;;;;;4941214;29;20227;-83
2023/10/20 08:35:54;;;;;;;27.30;22.13;;;;;;;;;;4941842;29;20231;-84
2023/10/20 08:39:13;;;;;;;29.60;22.30;;;;;;;;;;4929835;29;20250;-83
2023/10/20 08:42:18;;;;;;;27.73;22.30;;;;;;;;;;4929370;29;20196;-83
2023/10/20 08:45:24;;;;;;;30.70;21.93;;;;;;;;;;4929264;29;20596;-83
2023/10/20 08:48:31;;;;;;;26.90;21.07;;;;;;;;;;4941324;29;20200;-83
2023/10/20 08:51:38;;;;;;;26.97;21.40;;;;;;;;;;4929016;29;20207;-83
2023/10/20 08:54:42;;;;;;;24.90;19.90;;;;;;;;;;4940884;29;20195;-83
2023/10/20 08:57:46;;;;;;;26.97;20.93;;;;;;;;;;4928709;29;20192;-82
2023/10/20 09:00:54;;;;;;;25.47;20.47;;;;;;;;;;4929096;29;20191;-82
2023/10/20 09:04:00;;;;;;;28.80;19.93;;;;;;;;;;4929760;29;20684;-83
2023/10/20 09:07:37;;;;;;;26.80;19.97;;;;;;;;;;4928460;29;20195;-82
2023/10/20 09:11:39;;;;;;;27.33;21.13;;;;;;;;;;4930191;29;20195;-82
2023/10/20 09:15:51;;;;;;;27.77;20.83;;;;;;;;;;4913021;29;20239;-81
2023/10/20 09:19:06;;;;;;;28.17;21.00;;;;;;;;;;4938914;29;20219;-82
2023/10/20 09:22:10;;;;;;;25.10;20.17;;;;;;;;;;4938305;29;20261;-81
2023/10/20 09:25:16;;;;;;;25.17;20.90;;;;;;;;;;4939363;29;20234;-82
2023/10/20 09:29:05;;;;;;;27.90;20.67;;;;;;;;;;4916695;29;20195;-83
2023/10/20 09:32:10;;;;;;;26.17;19.53;;;;;;;;;;4932787;29;20207;-82
2023/10/20 09:35:14;;;;;;;23.17;19.43;;;;;;;;;;4930940;29;20231;-82
2023/10/20 09:38:31;;;;;;;24.03;19.63;;;;;;;;;;4917692;29;20834;-82
2023/10/20 09:41:44;;;;;;;24.27;18.73;;;;;;;;;;4939334;29;20196;-81
2023/10/20 09:45:02;;;;;;;28.97;18.70;;;;;;;;;;4939444;29;20195;-81
2023/10/20 09:48:16;;;;;;;24.30;18.30;;;;;;;;;;4927092;29;20232;-82
2023/10/20 09:51:21;;;;;;;21.40;17.40;;;;;;;;;;4939102;29;20200;-82
2023/10/20 09:54:29;;;;;;;21.23;17.47;;;;;;;;;;4938081;29;20234;-83
2023/10/20 09:57:34;;;;;;;19.50;16.97;;;;;;;;;;4926615;29;20708;-82
2023/10/20 10:00:42;;;;;;;24.10;16.70;;;;;;;;;;4939473;29;20199;-82
2023/10/20 10:04:03;;;;;;;21.37;16.07;;;;;;;;;;4939136;29;20554;-82
2023/10/20 10:07:29;;;;;;;18.53;15.83;;;;;;;;;;5123549;23;20717;-82
2023/10/20 10:11:35;;;;;;;20.37;15.70;;;;;;;;;;4938644;29;20188;-82
2023/10/20 10:15:14;;;;;;;20.57;15.57;;;;;;;;;;4935894;29;20227;-82
2023/10/20 10:18:24;;;;;;;16.97;14.30;;;;;;;;;;4918213;29;20200;-82
2023/10/20 10:21:29;;;;;;;20.53;15.97;;;;;;;;;;4919573;29;20192;-82
2023/10/20 10:24:36;;;;;;;17.03;14.63;;;;;;;;;;4918485;29;20681;-82
2023/10/20 10:27:40;;;;;;;19.27;14.87;;;;;;;;;;4918420;29;20258;-82
2023/10/20 10:30:50;;;;;;;15.87;13.63;;;;;;;;;;4919284;29;20191;-82
2023/10/20 10:34:04;;;;;;;17.07;14.50;;;;;;;;;;4901360;29;20217;-82
2023/10/20 10:37:08;;;;;;;19.07;14.07;;;;;;;;;;4900530;29;20201;-82
2023/10/20 10:40:23;;;;;;;17.20;14.37;;;;;;;;;;4900237;29;20196;-82
2023/10/20 10:43:30;;;;;;;16.87;14.03;;;;;;;;;;4888253;29;20193;-82
2023/10/20 10:46:34;;;;;;;17.20;14.53;;;;;;;;;;4899199;29;20228;-82
2023/10/20 10:49:45;;;;;;;18.00;14.57;;;;;;;;;;4900181;29;20227;-82
2023/10/20 10:52:49;;;;;;;18.10;14.87;;;;;;;;;;4888604;29;20196;-82
2023/10/20 10:55:54;;;;;;;35.00;26.40;;;;;;;;;;4900153;29;20244;-83
2023/10/20 10:58:58;;;;;;;20.43;15.17;;;;;;;;;;4900223;29;20197;-83
2023/10/20 11:02:05;;;;;;;17.80;14.40;;;;;;;;;;4888658;29;20196;-83
2023/10/20 11:05:09;;;;;;;15.43;13.83;;;;;;;;;;4877262;29;20244;-83
2023/10/20 11:08:13;;;;;;;17.33;13.57;;;;;;;;;;4899876;29;20670;-82
2023/10/20 11:11:17;;;;;;;18.97;14.50;;;;;;;;;;4888473;29;20201;-83
2023/10/20 11:14:23;;;;;;;17.67;14.80;;;;;;;;;;4888281;29;20742;-83
2023/10/20 11:17:27;;;;;;;19.20;14.10;;;;;;;;;;4887855;29;20192;-83
2023/10/20 11:20:36;;;;;;;17.80;14.47;;;;;;;;;;4899496;29;20184;-83
2023/10/20 11:23:40;;;;;;;14.47;12.33;;;;;;;;;;4899516;29;20267;-83
2023/10/20 11:26:54;;;;;;;18.33;14.13;;;;;;;;;;4899614;29;20236;-83
2023/10/20 11:29:58;;;;;;;17.77;14.13;;;;;;;;;;4888064;29;20200;-83
2023/10/20 11:33:03;;;;;;;18.27;14.87;;;;;;;;;;4887659;29;20196;-83
2023/10/20 11:36:07;;;;;;;18.47;14.60;;;;;;;;;;4899685;29;20594;-82
2023/10/20 11:39:11;;;;;;;18.50;14.90;;;;;;;;;;4899505;29;20189;-82
2023/10/20 11:42:15;;;;;;;18.70;14.60;;;;;;;;;;4899606;29;20197;-83
2023/10/20 11:45:21;;;;;;;22.10;15.90;;;;;;;;;;4887895;29;20232;-83
2023/10/20 11:48:24;;;;;;;18.57;14.47;;;;;;;;;;4887645;29;20196;-83
2023/10/20 11:51:29;;;;;;;15.97;14.03;;;;;;;;;;4899938;29;20200;-84
2023/10/20 11:54:41;;;;;;;16.47;13.73;;;;;;;;;;4888938;29;20236;-84
2023/10/20 11:57:45;;;;;;;15.43;12.90;;;;;;;;;;4899457;29;20201;-82
2023/10/20 12:00:51;;;;;;;15.53;13.50;;;;;;;;;;4899418;29;20196;-83
2023/10/20 12:03:56;;;;;;;15.17;12.33;;;;;;;;;;4888280;29;20551;-83
2023/10/20 12:07:00;;;;;;;27.13;21.67;;;;;;;;;;4956813;23;20786;-83
2023/10/20 12:10:16;;;;;;;14.50;12.07;;;;;;;;;;4925790;29;20676;-85
2023/10/20 12:13:20;;;;;;;12.53;10.60;;;;;;;;;;4914277;29;20192;-83
2023/10/20 12:16:25;;;;;;;12.00;10.73;;;;;;;;;;4922907;29;20231;-84
2023/10/20 12:19:30;;;;;;;12.73;10.80;;;;;;;;;;4918093;29;20665;-84
2023/10/20 12:22:34;;;;;;;15.10;11.00;;;;;;;;;;4918348;29;20188;-84
2023/10/20 12:25:38;;;;;;;12.00;10.43;;;;;;;;;;4906354;29;20231;-85
2023/10/20 12:28:42;;;;;;;13.07;11.37;;;;;;;;;;4896255;29;20669;-84
2023/10/20 12:31:47;;;;;;;13.67;10.80;;;;;;;;;;4896696;29;20199;-85
2023/10/20 12:34:53;;;;;;;15.40;12.07;;;;;;;;;;4895941;29;20229;-84
2023/10/20 12:37:57;;;;;;;13.03;10.60;;;;;;;;;;4917811;29;20220;-84
2023/10/20 12:41:01;;;;;;;11.23;9.87;;;;;;;;;;4917077;29;20199;-83
2023/10/20 12:44:06;;;;;;;12.03;10.17;;;;;;;;;;4918257;29;20189;-83
2023/10/20 12:47:11;;;;;;;11.33;10.13;;;;;;;;;;4918027;29;20188;-83
2023/10/20 12:50:15;;;;;;;11.83;9.27;;;;;;;;;;4918945;29;20557;-83
2023/10/20 12:53:21;;;;;;;12.93;10.60;;;;;;;;;;4918031;29;20209;-83
2023/10/20 12:56:26;;;;;;;13.43;11.77;;;;;;;;;;4918350;29;20219;-83
2023/10/20 12:59:30;;;;;;;13.50;10.00;;;;;;;;;;4909868;29;20546;-83
2023/10/20 13:02:34;;;;;;;12.33;9.57;;;;;;;;;;4921658;29;20200;-84
2023/10/20 13:05:40;;;;;;;10.50;9.40;;;;;;;;;;4909721;29;20228;-84
2023/10/20 13:08:45;;;;;;;11.53;10.17;;;;;;;;;;4921527;29;20528;-83
2023/10/20 13:11:49;;;;;;;9.37;8.43;;;;;;;;;;4909911;29;20200;-83
2023/10/20 13:14:56;;;;;;;11.20;9.40;;;;;;;;;;4888160;29;20701;-83
2023/10/20 13:18:00;;;;;;;12.40;9.30;;;;;;;;;;4909816;29;20213;-83
2023/10/20 13:21:05;;;;;;;9.17;6.23;;;;;;;;;;4909907;29;20213;-83
2023/10/20 13:24:11;;;;;;;7.60;5.90;;;;;;;;;;4909350;29;20185;-83
2023/10/20 13:27:15;;;;;;;6.20;5.60;;;;;;;;;;4898935;29;20197;-83
2023/10/20 13:30:19;;;;;;;7.50;5.47;;;;;;;;;;4898597;29;20188;-83
2023/10/20 13:33:24;;;;;;;11.97;10.77;;;;;;;;;;4921485;29;20189;-83
2023/10/20 13:36:27;;;;;;;6.13;5.53;;;;;;;;;;4921095;29;20227;-84
2023/10/20 13:39:32;;;;;;;7.33;5.50;;;;;;;;;;4920712;29;20196;-83
2023/10/20 13:42:36;;;;;;;8.37;5.10;;;;;;;;;;4920741;29;20189;-83
2023/10/20 13:45:41;;;;;;;7.80;4.93;;;;;;;;;;4920725;29;20224;-83
2023/10/20 13:48:45;;;;;;;7.77;5.23;;;;;;;;;;4888051;29;20188;-83
2023/10/20 13:51:49;;;;;;;5.87;4.23;;;;;;;;;;4908886;29;20192;-84
2023/10/20 13:55:00;;;;;;;7.27;5.03;;;;;;;;;;4898840;29;20228;-83
2023/10/20 13:58:05;;;;;;;6.03;4.67;;;;;;;;;;4909174;29;20631;-83
2023/10/20 14:01:08;;;;;;;7.17;4.80;;;;;;;;;;4920599;29;20193;-83
2023/10/20 14:04:13;;;;;;;5.30;4.80;;;;;;;;;;4920851;29;20188;-83
2023/10/20 14:07:17;;;;;;;5.33;4.13;;;;;;;;;;4909108;29;20220;-85
2023/10/20 14:10:21;;;;;;;8.43;6.23;;;;;;;;;;4919400;29;20188;-85
2023/10/20 14:13:25;;;;;;;5.27;4.67;;;;;;;;;;4919419;29;20189;-85
2023/10/20 14:16:29;;;;;;;5.67;4.17;;;;;;;;;;4920590;29;20221;-85
2023/10/20 14:19:34;;;;;;;4.70;3.77;;;;;;;;;;4910331;29;20189;-84
2023/10/20 14:22:38;;;;;;;6.10;3.77;;;;;;;;;;4899833;29;20197;-85
2023/10/20 14:25:42;;;;;;;3.80;3.40;;;;;;;;;;4898962;29;20220;-85
2023/10/20 14:28:46;;;;;;;4.33;3.40;;;;;;;;;;4897264;29;20192;-84
2023/10/20 14:31:51;;;;;;;5.50;3.80;;;;;;;;;;4920098;29;20185;-84
2023/10/20 14:34:56;;;;;;;4.00;3.33;;;;;;;;;;4920802;29;20678;-85
2023/10/20 14:38:00;;;;;;;6.10;3.43;;;;;;;;;;4920528;29;20197;-84
2023/10/20 14:41:07;;;;;;;6.97;3.67;;;;;;;;;;4920980;29;20532;-84
2023/10/20 14:44:11;;;;;;;4.20;3.13;;;;;;;;;;4898520;29;20662;-85
2023/10/20 14:47:16;;;;;;;3.70;3.30;;;;;;;;;;4918451;29;20189;-83
2023/10/20 14:50:20;;;;;;;10.00;8.60;;;;;;;;;;4919159;29;20184;-83
2023/10/20 14:53:25;;;;;;;27.80;18.40;;;;;;;;;;4919082;29;20185;-83
2023/10/20 14:56:29;;;;;;;35.47;20.70;;;;;;;;;;4920154;29;20244;-84
2023/10/20 14:59:33;;;;;;;48.93;26.60;;;;;;;;;;4920526;29;20262;-84
2023/10/20 15:02:38;;;;;;;40.10;23.23;;;;;;;;;;4920218;29;20203;-84
2023/10/20 15:05:44;;;;;;;27.00;16.40;;;;;;;;;;4897373;29;20240;-84
2023/10/20 15:08:48;;;;;;;22.90;13.63;;;;;;;;;;4920127;29;20200;-84
2023/10/20 15:11:53;;;;;;;33.30;18.13;;;;;;;;;;4919981;29;20196;-84
2023/10/20 15:14:57;;;;;;;12.67;7.80;;;;;;;;;;4919355;29;20701;-84
2023/10/20 15:18:01;;;;;;;58.03;23.93;;;;;;;;;;4919945;29;20221;-84
2023/10/20 15:21:06;;;;;;;41.27;18.10;;;;;;;;;;4917664;29;20199;-84
2023/10/20 15:24:10;;;;;;;50.70;23.80;;;;;;;;;;4918728;29;20200;-85
2023/10/20 15:27:14;;;;;;;52.93;25.33;;;;;;;;;;4921058;29;20192;-84
2023/10/20 15:30:18;;;;;;;67.93;32.90;;;;;;;;;;4919181;29;20204;-85
2023/10/20 15:33:23;;;;;;;61.33;30.60;;;;;;;;;;4897565;29;20195;-84
2023/10/20 15:36:44;;;;;;;22.37;12.47;;;;;;;;;;4896842;29;20760;-84
2023/10/20 15:39:49;;;;;;;66.47;31.20;;;;;;;;;;4919217;29;20188;-84
2023/10/20 15:42:53;;;;;;;50.33;25.87;;;;;;;;;;4896905;29;20196;-84
2023/10/20 15:45:58;;;;;;;97.07;41.33;;;;;;;;;;4919097;29;20235;-84
2023/10/20 15:49:05;;;;;;;63.10;27.03;;;;;;;;;;4918307;29;20200;-84
2023/10/20 15:52:09;;;;;;;38.17;25.13;;;;;;;;;;4918846;29;20196;-84
2023/10/20 15:55:13;;;;;;;13.30;10.47;;;;;;;;;;4918775;29;20251;-84
2023/10/20 15:58:18;;;;;;;7.17;4.93;;;;;;;;;;4919486;29;20196;-84
2023/10/20 16:01:25;;;;;;;5.30;4.80;;;;;;;;;;4918524;29;20551;-84
2023/10/20 16:04:29;;;;;;;6.23;4.60;;;;;;;;;;4929002;29;20189;-84
2023/10/20 16:07:32;;;;;;;4.97;4.23;;;;;;;;;;4918261;29;20180;-84
2023/10/20 16:10:37;;;;;;;3.27;2.37;;;;;;;;;;4907752;29;20634;-85
2023/10/20 16:13:41;;;;;;;1.30;1.20;;;;;;;;;;4919633;29;20189;-84
2023/10/20 16:16:45;;;;;;;1.37;0.90;;;;;;;;;;4906594;29;20232;-84
2023/10/20 16:19:49;;;;;;;1.73;1.13;;;;;;;;;;4919345;29;20638;-81
2023/10/20 16:22:53;;;;;;;1.50;0.93;;;;;;;;;;4918023;29;20197;-84
2023/10/20 16:25:57;;;;;;;1.77;1.67;;;;;;;;;;4929319;29;20225;-84
2023/10/20 16:29:02;;;;;;;2.10;0.90;;;;;;;;;;4918429;29;20193;-84
2023/10/20 16:32:06;;;;;;;2.60;1.10;;;;;;;;;;4920277;29;20189;-85
2023/10/20 16:35:10;;;;;;;1.60;0.60;;;;;;;;;;4921582;29;20236;-84
2023/10/20 16:38:14;;;;;;;0.97;0.87;;;;;;;;;;4922153;29;20189;-84
2023/10/20 16:41:18;;;;;;;0.80;0.80;;;;;;;;;;4932340;29;20189;-84
2023/10/20 16:44:23;;;;;;;0.87;0.80;;;;;;;;;;4932229;29;20189;-84
2023/10/20 16:47:27;;;;;;;1.77;0.60;;;;;;;;;;4921599;29;20185;-84
2023/10/20 16:50:31;;;;;;;0.87;0.60;;;;;;;;;;4910537;29;20189;-83
2023/10/20 16:53:35;;;;;;;0.90;0.50;;;;;;;;;;4922232;29;20193;-85
2023/10/20 16:57:07;;;;;;;6.50;2.50;;;;;;;;;;4931994;29;20237;-86
2023/10/20 17:00:12;;;;;;;11.07;6.73;;;;;;;;;;4921987;29;20189;-84
2023/10/20 17:03:16;;;;;;;33.20;16.97;;;;;;;;;;4933354;29;20667;-85
2023/10/20 17:06:21;;;;;;;18.20;9.57;;;;;;;;;;4934026;29;20727;-84
2023/10/20 17:09:24;;;;;;;12.97;9.33;;;;;;;;;;4940409;29;20670;-84
2023/10/20 17:12:30;;;;;;;3.10;2.30;;;;;;;;;;4941353;29;20212;-84
2023/10/20 17:15:34;;;;;;;2.40;1.07;;;;;;;;;;4928742;29;20581;-84
2023/10/20 17:18:37;;;;;;;3.33;0.60;;;;;;;;;;4941102;29;20188;-84
2023/10/20 17:21:42;;;;;;;1.10;1.00;;;;;;;;;;4929484;29;20188;-84
2023/10/20 17:24:46;;;;;;;0.50;0.50;;;;;;;;;;4940769;29;20646;-84
2023/10/20 17:27:50;;;;;;;1.43;0.60;;;;;;;;;;4941217;29;20184;-84
2023/10/20 17:30:57;;;;;;;0.77;0.60;;;;;;;;;;4929731;29;20184;-85
2023/10/20 17:34:01;;;;;;;0.47;0.40;;;;;;;;;;4940930;29;20192;-84
2023/10/20 17:37:05;;;;;;;0.77;0.40;;;;;;;;;;4929266;29;20216;-84
2023/10/20 17:40:11;;;;;;;1.20;0.60;;;;;;;;;;4940852;29;20192;-84
2023/10/20 17:43:17;;;;;;;1.00;0.70;;;;;;;;;;4938971;29;20184;-84
2023/10/20 17:46:22;;;;;;;1.43;1.17;;;;;;;;;;4940318;29;20224;-85
2023/10/20 17:49:26;;;;;;;2.20;0.60;;;;;;;;;;4940976;29;20522;-84
2023/10/20 17:52:30;;;;;;;0.77;0.53;;;;;;;;;;4929032;29;20188;-84
2023/10/20 17:55:40;;;;;;;0.80;0.60;;;;;;;;;;4939345;29;20236;-85
2023/10/20 17:58:44;;;;;;;0.80;0.40;;;;;;;;;;4940524;29;20192;-84
2023/10/20 18:01:48;;;;;;;2.03;0.60;;;;;;;;;;4940632;29;20188;-84
2023/10/20 18:04:53;;;;;;;1.07;0.50;;;;;;;;;;4940693;29;20543;-84
2023/10/20 18:07:58;;;;;;;0.70;0.60;;;;;;;;;;4940041;29;20184;-85
2023/10/20 18:11:05;;;;;;;0.63;0.50;;;;;;;;;;4929021;29;20188;-84
2023/10/20 18:14:09;;;;;;;0.73;0.50;;;;;;;;;;4940277;29;20189;-85
2023/10/20 18:17:14;;;;;;;0.90;0.57;;;;;;;;;;4928276;29;20211;-84
2023/10/20 18:20:18;;;;;;;0.70;0.60;;;;;;;;;;4917682;29;20192;-84
2023/10/20 18:23:22;;;;;;;1.23;0.50;;;;;;;;;;4929432;29;20184;-84
2023/10/20 18:26:26;;;;;;;1.27;0.60;;;;;;;;;;4940060;29;20216;-84
2023/10/20 18:29:30;;;;;;;0.80;0.60;;;;;;;;;;4938795;29;20192;-84
2023/10/20 18:32:35;;;;;;;0.70;0.60;;;;;;;;;;4939072;29;20188;-84
2023/10/20 18:35:39;;;;;;;0.97;0.63;;;;;;;;;;4917384;29;20231;-84
2023/10/20 18:38:43;;;;;;;1.17;0.80;;;;;;;;;;4939497;29;20184;-84
2023/10/20 18:41:47;;;;;;;1.40;0.90;;;;;;;;;;4938388;29;20642;-84
2023/10/20 18:44:53;;;;;;;1.00;0.50;;;;;;;;;;4939131;29;20188;-84